createdAt,value
2023-08-19T00:01:26.352Z,78.28
2023-08-19T00:03:57.848Z,78.21
2023-08-19T00:06:43.166Z,78.62
2023-08-19T00:09:14.239Z,78.51
2023-08-19T00:11:44.390Z,78.39
2023-08-19T00:14:15.160Z,78.16
2023-08-19T00:16:46.396Z,78.03
2023-08-19T00:19:20.186Z,78.31
2023-08-19T00:24:25.746Z,78.89
2023-08-19T00:26:56.054Z,78.79
2023-08-19T00:29:26.159Z,78.95
2023-08-19T00:31:56.845Z,78.67
2023-08-19T00:34:27.167Z,78.82
2023-08-19T00:36:57.885Z,78.75
2023-08-19T00:39:30.592Z,79.34
2023-08-19T00:42:01.402Z,79.50
2023-08-19T00:44:34.832Z,78.95
2023-08-19T00:47:08.450Z,79.13
2023-08-19T00:49:38.721Z,80.59
2023-08-19T00:52:09.483Z,79.36
2023-08-19T00:54:45.004Z,79.28
2023-08-19T00:57:15.747Z,79.78
2023-08-19T00:59:54.536Z,79.70
2023-08-19T01:02:24.651Z,79.63
2023-08-19T01:04:58.155Z,79.37
2023-08-19T01:07:34.327Z,79.77
2023-08-19T01:10:22.418Z,79.94
2023-08-19T01:13:00.959Z,80.31
2023-08-19T01:15:36.743Z,79.72
2023-08-19T01:18:13.629Z,80.03
2023-08-19T01:20:45.269Z,80.65
2023-08-19T01:23:20.311Z,80.66
2023-08-19T01:26:02.712Z,80.80
2023-08-19T01:28:32.917Z,80.91
2023-08-19T01:31:10.639Z,80.42
2023-08-19T01:33:57.334Z,80.61
2023-08-19T01:36:36.018Z,80.95
2023-08-19T01:39:09.484Z,80.87
2023-08-19T01:41:43.240Z,80.64
2023-08-19T01:44:13.742Z,82.20
2023-08-19T01:46:43.985Z,80.94
2023-08-19T01:49:16.144Z,81.00
2023-08-19T01:51:48.301Z,81.17
2023-08-19T01:54:18.674Z,81.08
2023-08-19T01:56:54.985Z,81.12
2023-08-19T01:59:27.467Z,81.23
2023-08-19T02:01:57.711Z,81.46
2023-08-19T02:04:28.456Z,81.27
2023-08-19T02:06:59.132Z,81.36
2023-08-19T02:09:30.401Z,81.07
2023-08-19T02:12:03.626Z,80.88
2023-08-19T02:14:33.813Z,81.13
2023-08-19T02:17:04.159Z,81.38
2023-08-19T02:19:34.451Z,81.43
2023-08-19T02:22:05.732Z,81.70
2023-08-19T02:24:35.893Z,82.06
2023-08-19T02:27:08.803Z,81.75
2023-08-19T02:29:38.989Z,81.72
2023-08-19T02:32:09.337Z,81.90
2023-08-19T02:34:41.399Z,82.18
2023-08-19T02:37:14.654Z,82.20
2023-08-19T02:39:44.890Z,81.85
2023-08-19T02:42:18.195Z,81.83
2023-08-19T02:44:49.302Z,82.31
2023-08-19T02:47:23.686Z,82.11
2023-08-19T02:49:53.880Z,81.93
2023-08-19T02:52:24.118Z,82.02
2023-08-19T02:54:54.333Z,82.09
2023-08-19T02:57:27.813Z,82.42
2023-08-19T03:00:01.740Z,82.57
2023-08-19T03:02:34.426Z,81.82
2023-08-19T03:05:05.636Z,82.48
2023-08-19T03:07:36.183Z,82.18
2023-08-19T03:10:08.386Z,82.18
2023-08-19T03:12:41.268Z,82.31
2023-08-19T03:15:12.521Z,82.02
2023-08-19T03:17:45.681Z,82.42
2023-08-19T03:20:16.488Z,82.41
2023-08-19T03:22:46.779Z,82.29
2023-08-19T03:25:20.337Z,82.19
2023-08-19T03:27:56.335Z,82.12
2023-08-19T03:30:30.366Z,82.78
2023-08-19T03:33:00.850Z,82.58
2023-08-19T03:35:31.311Z,82.45
2023-08-19T03:38:01.613Z,82.28
2023-08-19T03:40:31.771Z,82.46
2023-08-19T03:43:13.127Z,82.30
2023-08-19T03:45:47.442Z,82.16
2023-08-19T03:48:17.761Z,82.62
2023-08-19T03:50:47.983Z,82.49
2023-08-19T03:53:18.310Z,82.41
2023-08-19T03:55:52.601Z,82.58
2023-08-19T03:58:25.279Z,82.51
2023-08-19T04:01:09.184Z,82.49
2023-08-19T04:03:43.051Z,82.57
2023-08-19T04:06:13.946Z,82.29
2023-08-19T04:08:44.213Z,82.17
2023-08-19T04:11:14.472Z,82.38
2023-08-19T04:13:49.331Z,82.52
2023-08-19T04:16:19.797Z,82.17
2023-08-19T04:18:50.321Z,82.27
2023-08-19T04:21:21.127Z,81.34
2023-08-19T04:23:53.850Z,81.20
2023-08-19T04:26:23.870Z,81.05
2023-08-19T04:28:56.499Z,81.14
2023-08-19T04:31:27.255Z,80.98
2023-08-19T04:34:00.982Z,80.92
2023-08-19T04:36:31.386Z,81.17
2023-08-19T04:39:02.851Z,80.88
2023-08-19T04:41:34.404Z,81.15
2023-08-19T04:44:10.556Z,81.16
2023-08-19T04:46:41.478Z,80.98
2023-08-19T04:49:11.663Z,81.42
2023-08-19T04:51:42.524Z,81.87
2023-08-19T04:54:12.914Z,81.79
2023-08-19T04:56:43.104Z,81.95
2023-08-19T04:59:20.470Z,80.94
2023-08-19T05:01:50.867Z,79.70
2023-08-19T05:04:25.498Z,78.68
2023-08-19T05:06:56.957Z,78.55
2023-08-19T05:09:28.460Z,78.62
2023-08-19T05:11:59.338Z,78.88
2023-08-19T05:14:34.499Z,78.47
2023-08-19T05:17:08.772Z,78.32
2023-08-19T05:19:40.466Z,79.95
2023-08-19T05:22:10.717Z,78.95
2023-08-19T05:24:41.150Z,79.15
2023-08-19T05:27:11.494Z,79.43
2023-08-19T05:29:44.283Z,77.11
2023-08-19T05:32:16.992Z,72.24
2023-08-19T05:34:48.502Z,69.29
2023-08-19T05:37:23.025Z,67.34
2023-08-19T05:39:53.309Z,65.86
2023-08-19T05:42:23.429Z,64.83
2023-08-19T05:44:57.445Z,64.74
2023-08-19T05:47:29.920Z,64.15
2023-08-19T05:50:00.521Z,63.93
2023-08-19T05:52:33.862Z,62.72
2023-08-19T05:55:10.886Z,62.64
2023-08-19T05:57:40.909Z,62.67
2023-08-19T06:00:15.200Z,63.03
2023-08-19T06:02:45.507Z,65.06
2023-08-19T06:05:16.545Z,67.04
2023-08-19T06:08:01.906Z,68.16
2023-08-19T06:10:34.365Z,68.60
2023-08-19T06:13:04.827Z,69.13
2023-08-19T06:15:51.261Z,70.08
2023-08-19T06:18:21.630Z,70.68
2023-08-19T06:20:59.968Z,70.79
2023-08-19T06:23:30.435Z,71.29
2023-08-19T06:26:01.151Z,71.47
2023-08-19T06:28:31.446Z,72.39
2023-08-19T06:31:04.353Z,72.63
2023-08-19T06:33:39.468Z,72.89
2023-08-19T06:36:14.284Z,73.20
2023-08-19T06:38:51.354Z,72.82
2023-08-19T06:41:22.284Z,73.12
2023-08-19T06:43:55.228Z,72.88
2023-08-19T06:46:29.227Z,73.16
2023-08-19T06:49:08.255Z,72.92
2023-08-19T06:51:40.830Z,72.84
2023-08-19T06:54:13.103Z,73.36
2023-08-19T06:56:55.457Z,73.42
2023-08-19T06:59:38.258Z,72.91
2023-08-19T07:02:13.105Z,73.51
2023-08-19T07:04:49.731Z,73.22
2023-08-19T07:07:26.253Z,72.92
2023-08-19T07:09:57.113Z,72.96
2023-08-19T07:12:30.333Z,72.73
2023-08-19T07:15:01.226Z,72.81
2023-08-19T07:17:42.089Z,73.25
2023-08-19T07:20:17.224Z,73.21
2023-08-19T07:22:50.841Z,73.13
2023-08-19T07:25:22.133Z,72.93
2023-08-19T07:27:53.334Z,73.30
2023-08-19T07:30:26.870Z,72.61
2023-08-19T07:33:01.333Z,72.91
2023-08-19T07:35:33.985Z,73.19
2023-08-19T07:38:04.294Z,73.25
2023-08-19T07:40:36.825Z,73.23
2023-08-19T07:43:11.231Z,72.93
2023-08-19T07:45:42.570Z,72.41
2023-08-19T07:48:16.214Z,72.13
2023-08-19T07:50:46.135Z,71.49
2023-08-19T07:53:16.854Z,72.51
2023-08-19T07:55:48.906Z,72.34
2023-08-19T07:58:19.173Z,71.99
2023-08-19T08:00:49.509Z,71.65
2023-08-19T08:03:22.729Z,71.45
2023-08-19T08:05:56.705Z,71.12
2023-08-19T08:08:26.907Z,71.35
2023-08-19T08:10:57.125Z,70.67
2023-08-19T08:13:27.480Z,71.02
2023-08-19T08:15:57.834Z,70.98
2023-08-19T08:18:31.001Z,71.17
2023-08-19T08:21:01.123Z,70.81
2023-08-19T08:23:31.300Z,70.84
2023-08-19T08:26:05.517Z,70.80
2023-08-19T08:28:36.688Z,70.31
2023-08-19T08:31:09.741Z,70.46
2023-08-19T08:33:46.669Z,69.68
2023-08-19T08:36:19.769Z,69.58
2023-08-19T08:38:50.684Z,70.10
2023-08-19T08:41:21.164Z,69.58
2023-08-19T08:43:51.918Z,70.16
2023-08-19T08:46:23.506Z,69.97
2023-08-19T08:48:57.721Z,70.00
2023-08-19T08:51:30.156Z,70.14
2023-08-19T08:54:09.501Z,70.19
2023-08-19T08:56:39.556Z,70.20
2023-08-19T08:59:15.461Z,70.33
2023-08-19T09:01:49.407Z,69.30
2023-08-19T09:04:28.637Z,69.62
2023-08-19T09:07:16.617Z,69.29
2023-08-19T09:09:49.830Z,69.17
2023-08-19T09:12:20.618Z,68.72
2023-08-19T09:14:55.569Z,68.47
2023-08-19T09:17:26.338Z,68.40
2023-08-19T09:20:01.724Z,68.79
2023-08-19T09:22:33.064Z,68.52
2023-08-19T09:25:06.498Z,68.34
2023-08-19T09:27:37.745Z,66.99
2023-08-19T09:30:10.162Z,67.07
2023-08-19T09:32:45.772Z,66.83
2023-08-19T09:35:20.658Z,66.39
2023-08-19T09:37:54.748Z,66.24
2023-08-19T09:40:26.638Z,66.02
2023-08-19T09:42:59.214Z,65.67
2023-08-19T09:45:31.196Z,66.11
2023-08-19T09:48:01.408Z,65.77
2023-08-19T09:50:34.519Z,65.63
2023-08-19T09:53:04.893Z,65.87
2023-08-19T09:55:36.063Z,65.61
2023-08-19T09:58:06.384Z,66.16
2023-08-19T10:00:36.816Z,65.23
2023-08-19T10:03:10.181Z,65.74
2023-08-19T10:05:46.051Z,60.02
2023-08-19T10:08:30.146Z,65.37
2023-08-19T10:11:00.697Z,65.52
2023-08-19T10:13:31.557Z,65.31
2023-08-19T10:16:02.435Z,64.98
2023-08-19T10:18:37.069Z,64.85
2023-08-19T10:21:14.773Z,63.50
2023-08-19T10:23:48.061Z,63.39
2023-08-19T10:26:19.629Z,63.87
2023-08-19T10:29:13.161Z,63.16
2023-08-19T10:31:45.854Z,63.50
2023-08-19T10:34:29.977Z,63.20
2023-08-19T10:37:15.022Z,62.33
2023-08-19T10:39:51.513Z,62.40
2023-08-19T10:42:24.680Z,63.07
2023-08-19T10:44:56.830Z,62.82
2023-08-19T10:47:27.230Z,63.02
2023-08-19T10:50:05.899Z,62.62
2023-08-19T10:52:39.672Z,62.72
2023-08-19T10:55:19.472Z,62.42
2023-08-19T10:57:52.212Z,61.72
2023-08-19T11:00:28.649Z,61.65
2023-08-19T11:02:58.912Z,61.85
2023-08-19T11:05:30.744Z,61.53
2023-08-19T11:08:03.490Z,61.37
2023-08-19T11:10:36.345Z,61.04
2023-08-19T11:13:09.932Z,62.03
2023-08-19T11:15:41.193Z,62.39
2023-08-19T11:18:12.156Z,62.52
2023-08-19T11:20:42.759Z,62.53
2023-08-19T11:23:28.773Z,62.11
2023-08-19T11:26:00.104Z,61.46
2023-08-19T11:28:30.525Z,61.77
2023-08-19T11:31:00.931Z,61.36
2023-08-19T11:33:35.182Z,61.88
2023-08-19T11:36:05.711Z,61.68
2023-08-19T11:38:39.312Z,61.64
2023-08-19T11:41:16.912Z,61.70
2023-08-19T11:43:50.930Z,61.39
2023-08-19T11:46:21.363Z,61.53
2023-08-19T11:48:52.440Z,61.49
2023-08-19T11:51:25.623Z,61.08
2023-08-19T11:54:05.929Z,59.48
2023-08-19T11:56:53.998Z,59.11
2023-08-19T11:59:33.123Z,60.54
2023-08-19T12:02:06.927Z,60.80
2023-08-19T12:04:38.365Z,60.64
2023-08-19T12:07:13.417Z,60.48
2023-08-19T12:09:46.316Z,60.81
2023-08-19T12:12:19.383Z,60.91
2023-08-19T12:14:49.880Z,61.00
2023-08-19T12:17:19.940Z,60.80
2023-08-19T12:19:50.758Z,60.94
2023-08-19T12:22:20.865Z,60.56
2023-08-19T12:24:55.470Z,60.79
2023-08-19T12:27:26.067Z,60.75
2023-08-19T12:29:56.290Z,60.65
2023-08-19T12:32:29.019Z,60.61
2023-08-19T12:35:00.872Z,60.79
2023-08-19T12:37:30.959Z,60.87
2023-08-19T12:40:05.141Z,60.31
2023-08-19T12:42:47.576Z,60.46
2023-08-19T12:45:19.199Z,60.62
2023-08-19T12:47:49.680Z,60.54
2023-08-19T12:50:20.364Z,61.23
2023-08-19T12:52:50.596Z,61.20
2023-08-19T12:55:27.020Z,61.54
2023-08-19T12:58:01.163Z,61.40
2023-08-19T13:00:32.881Z,61.98
2023-08-19T13:03:03.982Z,61.24
2023-08-19T13:05:34.801Z,61.99
2023-08-19T13:08:05.607Z,61.84
2023-08-19T13:10:38.358Z,61.61
2023-08-19T13:13:12.201Z,61.74
2023-08-19T13:15:45.881Z,61.92
2023-08-19T13:18:20.215Z,61.79
2023-08-19T13:20:52.418Z,61.75
2023-08-19T13:23:22.514Z,61.56
2023-08-19T13:25:57.963Z,62.06
2023-08-19T13:28:29.557Z,62.40
2023-08-19T13:30:59.991Z,62.54
2023-08-19T13:33:30.314Z,63.16
2023-08-19T13:36:06.669Z,62.76
2023-08-19T13:38:36.951Z,63.57
2023-08-19T13:41:09.869Z,63.89
2023-08-19T13:43:41.933Z,63.80
2023-08-19T13:46:12.161Z,64.04
2023-08-19T13:48:42.466Z,64.48
2023-08-19T13:51:17.617Z,64.66
2023-08-19T13:53:47.690Z,64.74
2023-08-19T13:56:20.363Z,65.04
2023-08-19T13:58:50.528Z,65.24
2023-08-19T14:01:21.025Z,65.05
2023-08-19T14:03:51.103Z,64.71
2023-08-19T14:06:21.656Z,64.75
2023-08-19T14:08:51.858Z,64.83
2023-08-19T14:11:31.323Z,64.78
2023-08-19T14:14:04.325Z,64.71
2023-08-19T14:16:38.111Z,64.77
2023-08-19T14:19:10.475Z,64.62
2023-08-19T14:21:40.646Z,64.43
2023-08-19T14:24:11.875Z,64.73
2023-08-19T14:26:45.474Z,64.46
2023-08-19T14:29:15.924Z,64.38
2023-08-19T14:31:46.192Z,64.51
2023-08-19T14:34:18.098Z,64.60
2023-08-19T14:36:48.286Z,64.07
2023-08-19T14:39:21.399Z,64.41
2023-08-19T14:42:10.164Z,64.15
2023-08-19T14:44:40.243Z,63.91
2023-08-19T14:47:10.584Z,64.13
2023-08-19T14:49:40.672Z,64.09
2023-08-19T14:52:10.819Z,64.24
2023-08-19T14:54:43.189Z,64.64
2023-08-19T14:57:16.543Z,64.56
2023-08-19T14:59:46.660Z,64.65
2023-08-19T15:02:17.179Z,65.32
2023-08-19T15:04:49.488Z,64.46
2023-08-19T15:07:19.756Z,64.52
2023-08-19T15:09:49.783Z,64.38
2023-08-19T15:12:22.615Z,64.46
2023-08-19T15:14:53.050Z,64.33
2023-08-19T15:17:36.398Z,64.31
2023-08-19T15:20:08.980Z,63.86
2023-08-19T15:22:40.494Z,63.91
2023-08-19T15:25:12.469Z,63.67
2023-08-19T15:27:48.521Z,63.31
2023-08-19T15:30:24.858Z,63.22
2023-08-19T15:33:01.067Z,63.11
2023-08-19T15:35:32.014Z,62.96
2023-08-19T15:38:04.304Z,63.31
2023-08-19T15:40:34.481Z,63.14
2023-08-19T15:43:07.680Z,63.46
2023-08-19T15:45:40.118Z,63.24
2023-08-19T15:48:13.300Z,63.88
2023-08-19T15:50:43.433Z,63.88
2023-08-19T15:53:29.273Z,64.32
2023-08-19T15:56:00.051Z,64.01
2023-08-19T15:58:33.218Z,64.14
2023-08-19T16:01:11.346Z,63.50
2023-08-19T16:03:41.845Z,63.64
2023-08-19T16:06:11.864Z,63.73
2023-08-19T16:08:42.019Z,63.73
2023-08-19T16:11:12.502Z,63.94
2023-08-19T16:13:45.261Z,64.06
2023-08-19T16:16:19.155Z,63.79
2023-08-19T16:18:49.320Z,64.02
2023-08-19T16:21:19.582Z,64.23
2023-08-19T16:23:49.904Z,63.98
2023-08-19T16:26:20.292Z,63.95
2023-08-19T16:28:53.182Z,64.07
2023-08-19T16:31:23.297Z,64.22
2023-08-19T16:33:53.389Z,64.36
2023-08-19T16:36:23.712Z,64.79
2023-08-19T16:38:55.091Z,64.86
2023-08-19T16:41:25.229Z,64.67
2023-08-19T16:43:57.973Z,65.25
2023-08-19T16:46:28.238Z,65.45
2023-08-19T16:48:58.441Z,65.90
2023-08-19T16:51:26.211Z,66.48
2023-08-19T16:53:56.554Z,66.24
2023-08-19T16:56:26.961Z,66.74
2023-08-19T16:58:59.767Z,66.64
2023-08-19T17:01:30.179Z,66.58
2023-08-19T17:04:00.390Z,67.05
2023-08-19T17:06:30.527Z,66.55
2023-08-19T17:09:04.962Z,66.86
2023-08-19T17:11:35.218Z,66.85
2023-08-19T17:14:08.913Z,67.29
2023-08-19T17:16:41.057Z,66.88
2023-08-19T17:19:11.683Z,66.74
2023-08-19T17:21:43.495Z,67.20
2023-08-19T17:24:13.599Z,66.87
2023-08-19T17:26:44.160Z,66.92
2023-08-19T17:29:17.105Z,66.95
2023-08-19T17:31:47.209Z,66.79
2023-08-19T17:34:17.440Z,66.63
2023-08-19T17:36:47.800Z,67.02
2023-08-19T17:39:18.983Z,67.15
2023-08-19T17:41:49.377Z,67.04
2023-08-19T17:44:23.163Z,67.05
2023-08-19T17:46:57.067Z,67.11
2023-08-19T17:49:27.055Z,67.64
2023-08-19T17:51:59.123Z,68.03
2023-08-19T17:54:30.031Z,68.18
2023-08-19T17:57:00.353Z,68.20
2023-08-19T17:59:33.013Z,68.33
2023-08-19T18:02:09.881Z,68.40
2023-08-19T18:04:40.038Z,68.57
2023-08-19T18:07:12.307Z,68.65
2023-08-19T18:09:42.258Z,69.42
2023-08-19T18:12:13.434Z,69.13
2023-08-19T18:14:47.619Z,69.59
2023-08-19T18:17:17.664Z,69.81
2023-08-19T18:19:47.850Z,69.62
2023-08-19T18:22:18.097Z,69.93
2023-08-19T18:24:50.480Z,69.70
2023-08-19T18:27:20.526Z,69.85
2023-08-19T18:29:53.275Z,69.60
2023-08-19T18:32:23.334Z,70.08
2023-08-19T18:35:02.615Z,70.23
2023-08-19T18:37:33.512Z,70.04
2023-08-19T18:40:08.103Z,70.44
2023-08-19T18:42:38.233Z,70.39
2023-08-19T18:45:15.254Z,70.15
2023-08-19T18:48:09.297Z,70.94
2023-08-19T18:50:41.009Z,70.91
2023-08-19T18:53:14.027Z,71.32
2023-08-19T18:55:45.242Z,71.15
2023-08-19T18:58:15.956Z,71.04
2023-08-19T19:00:49.748Z,71.59
2023-08-19T19:03:19.886Z,71.50
2023-08-19T19:05:50.946Z,71.54
2023-08-19T19:08:21.220Z,71.64
2023-08-19T19:10:51.519Z,71.82
2023-08-19T19:13:21.644Z,72.01
2023-08-19T19:15:56.718Z,71.76
2023-08-19T19:18:26.900Z,72.10
2023-08-19T19:20:57.090Z,72.29
2023-08-19T19:23:27.437Z,72.06
2023-08-19T19:25:57.716Z,72.22
2023-08-19T19:28:30.494Z,71.83
2023-08-19T19:31:28.803Z,72.12
2023-08-19T19:33:58.836Z,71.87
2023-08-19T19:36:32.649Z,72.23
2023-08-19T19:39:04.491Z,72.08
2023-08-19T19:41:42.138Z,72.43
2023-08-19T19:44:20.119Z,72.96
2023-08-19T19:46:54.204Z,72.99
2023-08-19T19:49:25.047Z,73.16
2023-08-19T19:52:02.606Z,72.49
2023-08-19T19:54:34.411Z,72.78
2023-08-19T19:57:07.256Z,72.97
2023-08-19T19:59:37.960Z,73.05
2023-08-19T20:02:11.079Z,73.45
2023-08-19T20:04:43.691Z,73.23
2023-08-19T20:07:13.930Z,73.19
2023-08-19T20:09:44.088Z,73.86
2023-08-19T20:12:21.401Z,73.80
2023-08-19T20:14:52.233Z,73.56
2023-08-19T20:17:24.961Z,73.40
2023-08-19T20:19:55.047Z,73.92
2023-08-19T20:22:29.496Z,73.74
2023-08-19T20:25:00.193Z,73.83
2023-08-19T20:27:30.373Z,73.62
2023-08-19T20:30:02.747Z,73.56
2023-08-19T20:32:39.717Z,73.39
2023-08-19T20:35:11.477Z,73.41
2023-08-19T20:37:41.526Z,73.54
2023-08-19T20:40:12.660Z,73.30
2023-08-19T20:42:42.832Z,73.78
2023-08-19T20:45:14.975Z,73.92
2023-08-19T20:47:49.857Z,74.18
2023-08-19T20:50:20.058Z,73.94
2023-08-19T20:52:50.509Z,74.62
2023-08-19T20:55:20.699Z,74.72
2023-08-19T20:57:52.423Z,74.29
2023-08-19T21:00:25.023Z,74.18
2023-08-19T21:02:58.079Z,74.25
2023-08-19T21:05:29.717Z,74.19
2023-08-19T21:07:59.915Z,74.99
2023-08-19T21:10:31.878Z,74.94
2023-08-19T21:13:01.980Z,74.85
2023-08-19T21:15:34.782Z,74.90
2023-08-19T21:18:08.712Z,74.88
2023-08-19T21:20:38.943Z,75.18
2023-08-19T21:23:11.422Z,74.88
2023-08-19T21:25:41.948Z,75.48
2023-08-19T21:28:12.348Z,75.34
2023-08-19T21:30:43.318Z,75.02
2023-08-19T21:33:16.079Z,75.36
2023-08-19T21:35:46.274Z,75.10
2023-08-19T21:38:18.990Z,75.24
2023-08-19T21:40:49.550Z,75.36
2023-08-19T21:43:19.631Z,75.29
2023-08-19T21:45:49.993Z,75.22
2023-08-19T21:48:22.738Z,75.38
2023-08-19T21:50:53.517Z,75.80
2023-08-19T21:53:26.637Z,75.61
2023-08-19T21:55:56.722Z,75.35
2023-08-19T21:58:28.335Z,75.83
2023-08-19T22:01:00.102Z,75.18
2023-08-19T22:03:33.554Z,75.17
2023-08-19T22:06:10.053Z,75.08
2023-08-19T22:08:40.264Z,75.23
2023-08-19T22:11:11.355Z,75.45
2023-08-19T22:13:41.349Z,75.17
2023-08-19T22:16:11.652Z,74.72
2023-08-19T22:18:44.582Z,74.86
2023-08-19T22:21:14.737Z,74.74
2023-08-19T22:23:44.741Z,74.52
2023-08-19T22:26:14.817Z,74.65
2023-08-19T22:28:44.965Z,74.72
2023-08-19T22:31:15.378Z,74.79
2023-08-19T22:33:51.325Z,75.15
2023-08-19T22:36:22.572Z,74.72
2023-08-19T22:38:54.218Z,74.64
2023-08-19T22:41:24.293Z,75.06
2023-08-19T22:43:54.844Z,74.93
2023-08-19T22:46:26.878Z,74.63
2023-08-19T22:48:59.998Z,74.97
2023-08-19T22:51:30.015Z,75.03
2023-08-19T22:54:05.016Z,74.96
2023-08-19T22:56:37.514Z,74.99
2023-08-19T22:59:10.175Z,74.86
2023-08-19T23:01:40.364Z,75.00
2023-08-19T23:04:13.191Z,75.29
2023-08-19T23:06:43.488Z,75.41
2023-08-19T23:09:13.538Z,75.25
2023-08-19T23:11:43.645Z,75.67
2023-08-19T23:14:13.806Z,75.50
2023-08-19T23:16:44.935Z,75.14
2023-08-19T23:19:20.645Z,74.73
2023-08-19T23:21:50.792Z,75.45
2023-08-19T23:24:26.839Z,75.29
2023-08-19T23:26:59.423Z,75.11
2023-08-19T23:29:32.561Z,75.17
2023-08-19T23:32:02.610Z,75.62
2023-08-19T23:34:50.760Z,75.81
2023-08-19T23:37:20.793Z,75.45
2023-08-19T23:39:53.014Z,75.53
2023-08-19T23:42:23.076Z,76.20
2023-08-19T23:44:53.134Z,76.08
2023-08-19T23:47:26.521Z,75.61
2023-08-19T23:50:10.855Z,75.79
2023-08-19T23:52:44.964Z,76.11
2023-08-19T23:55:17.107Z,76.39
2023-08-19T23:57:51.737Z,76.71
